Tiempo atmosférico en la estación meteorológica de Puerto De La Cruz, Santa Cruz de Tenerife (25 m.)



Fecha
DESCASC
Temp. máxima en grados centígrados (hora)
DESCASC
Temp. mínima en grados centígrados (hora)
DESCASC
Temp. media en grados centígrados
DESCASC
Racha de viento máxima en m/sg (hora)
DESCASC
Velocidad máxima media en intervalos de 10 minutos(hora)
DESCASC
Precipitaciones diarias en mm
DESCASC
Precipitaciones de 00:00 a 06:00 en mm
DESCASC
Precipitaciones de 06:00 a 12:00 en mm
DESCASC
Precipitaciones de 12:00 a 18:00 en mm
DESCASC
Precipitaciones de 18:00 a 24:00 en mm
DESCASC
19-04-2018 23.6 (13:10) 17.2 (04:30) 20.4 9.17 (20:10) 5.83 (20:20) 1.6 0 0 0 1.6
18-04-2018 24.3 (16:30) 17.7 (06:50) 21 5.56 (16:20) 4.72 (16:00) 0 0 0 0 0
17-04-2018 23.2 (14:50) 17.6 (04:00) 20.4 14.44 (13:30) 5.28 (12:50) 0 0 0 0 0
16-04-2018 22.8 (17:30) 14.9 (08:00) 18.8 8.33 (12:50) 6.39 (13:50) 0 0 0 0 0
15-04-2018 21.5 (14:10) 16.6 (00:00) 19.1 7.5 (20:40) 6.11 (20:40) 0 0 0 0 0
14-04-2018 23.6 (16:00) 15.7 (00:00) 19.7 6.67 (22:00) 5.28 (13:50) 0 0 0 0 0
13-04-2018 21.7 (15:20) 16.7 (00:00) 19.2 7.5 (00:10) 4.17 (15:40) 0.2 0.2 0 0 0
12-04-2018 21.2 (12:30) 16.4 (00:00) 18.8 7.22 (23:50) 4.17 (14:10) 0 0 0 0 0
11-04-2018 21.9 (11:50) 16.1 (00:00) 19 6.67 (06:10) 3.06 (05:50) 0.5 0 0 0 0.5
10-04-2018 23 (14:00) 15.1 (00:00) 19.1 6.67 (00:10) 5 (00:10) 0 0 0 0 0
09-04-2018 21.7 (16:50) 16.4 (00:00) 19.1 10 (06:10) 7.5 (06:00) 0.6 0.5 0 0 0.1
08-04-2018 22.9 (16:20) 15.7 (00:00) 19.3 11.67 (21:40) 5.28 (21:40) 1.9 0 0.2 0.4 1.3
07-04-2018 23 (16:30) 15.9 (00:00) 19.4 6.39 (04:50) 3.61 (12:40) 0.6 0.4 0.2 0 0
06-04-2018 21.2 (16:20) 14.8 (00:00) 18 8.61 (19:10) 4.17 (16:50) 0.6 0 0 0 0.6
05-04-2018 23.4 (16:50) 15.1 (00:00) 19.3 7.5 (13:00) 5.83 (12:40) 0 0 0 0 0
04-04-2018 21.6 (12:20) 15.7 (00:00) 18.7 12.22 (14:10) 9.72 (14:30) 0 0 0 0 0
03-04-2018 23.4 (14:40) 15.2 (00:00) 19.3 5.28 (07:40) 3.61 (12:40) 0 0 0 0 0
02-04-2018 22.1 (18:20) 17.3 (00:00) 19.7 5 (02:30) 2.78 (02:30) 0 0 0 0 0
01-04-2018 21.5 (16:40) 16.6 (00:00) 19.1 5.28 (21:20) 2.78 (21:20) 0 0 0 0 0
31-03-2018 23.1 (17:10) 14 (00:00) 18.6 6.11 (17:20) 4.72 (17:20) 0 0 0 0 0
30-03-2018 19.5 (13:00) 15.1 (00:00) 17.3 13.89 (13:30) 10.83 (13:30) 0 0 0 0 0
29-03-2018 22.5 (14:40) 17.8 (00:00) 20.1 10.56 (23:40) 8.33 (23:40) 0 0 0 0 0
28-03-2018 22.1 (15:10) 17.3 (00:00) 19.7 5 (02:20) 2.22 (00:30) 0 0 0 0 0
27-03-2018 20.7 (11:10) 15.9 (00:00) 18.3 11.94 (13:00) 8.33 (13:20) 0 0 0 0 0
26-03-2018 21.6 (13:30) 16.9 (00:00) 19.3 12.78 (03:40) 9.72 (14:50) 0 0 0 0 0
25-03-2018 21.4 (17:40) 15.7 (00:00) 18.5 7.78 (12:50) 5.83 (03:50) 0 0 0 0 0
24-03-2018 24.8 (14:00) 15 (00:00) 19.9 6.39 (16:50) 5 (16:50) 0 0 0 0 0
23-03-2018 21.5 (16:10) 14.2 (00:00) 17.8 8.33 (11:40) 6.11 (10:50) 0 0 0 0 0

Gráficas

Temp. máximas Temp. mínimas Temp. medias Precipitaciones Rachas de viento máximas Velocidades máximas media en intervalos de 10 minutos

Datos horarios

Fecha y hora oficial Temperatura (ºC) Velocidad del viento (km/h) Dirección del viento Racha (km/h) Dirección de racha Precipitación (mm) Presión (hPa) Tendencia (hPa) Humedad (%)
2018-04-21 23:00:00 17.5 4 Sudoeste 14 Sur 0 1015.6 1.9 90
2018-04-21 22:00:00 16.9 10 Sur 22 Oeste 1.1 1015.1 1.6 91
2018-04-21 21:00:00 18 4 Sudoeste 15 Sudoeste 0.7 1014.2 0.5 88
2018-04-21 20:00:00 18.4 3 Sudoeste 17 Sudoeste 0.9 1013.7 -0.4 86
2018-04-21 19:00:00 18.5 10 Sudoeste 17 Sudoeste 0 1013.5 -0.6 81
2018-04-21 18:00:00 18.1 7 Sudoeste 17 Sudoeste 0.3 1013.7 -0.4 85
2018-04-21 17:00:00 17.8 10 Sudoeste 26 Oeste 0 1014.1 -0.4 88
2018-04-21 16:00:00 18.1 3 Oeste 21 Noroeste 1.6 1014.1 -0.3 89
2018-04-21 15:00:00 18.8 9 Sudoeste 21 Noroeste 0.4 1014.1 -0.9 78
2018-04-21 14:00:00 17.7 7 Oeste 26 Noroeste 0.2 1014.5 -0.5 85
2018-04-21 13:00:00 18.7 9 Sudoeste 19 Sudoeste 0 1014.4 -0.3 71
2018-04-21 12:00:00 18.1 8 Sudoeste 28 Noroeste 0 1015 -0.2 75
2018-04-21 11:00:00 18.4 9 Oeste 22 Oeste 0 1015 0.2 71
2018-04-21 10:00:00 18.3 5 Oeste 18 Sudoeste 0 1014.7 -0.2 67
2018-04-21 09:00:00 16.6 9 Sudoeste 24 Noroeste 0 1015.2 0.7 77
2018-04-21 08:00:00 16.3 4 Sudoeste 17 Sur 0 1014.8 0 73
2018-04-21 07:00:00 15.5 5 Sur 23 Noroeste 0.1 1014.9 -0.2 83
2018-04-21 06:00:00 15.7 4 Sur 11 Sudoeste 0 1014.5 -1.4 67
2018-04-21 05:00:00 15.8 2 Sur 14 Sur 0 1014.8 -1.8 66
2018-04-21 04:00:00 15.7 9 Sur 16 Sur 0 1015.1 -2 59
2018-04-21 03:00:00 14.9 4 Sur 18 Sur 0 1015.9 -1.3 71
2018-04-21 02:00:00 15.4 8 Sur 14 Sur 0 1016.6 -1.1 69
2018-04-21 01:00:00 15.8 6 Sur 13 Sur 0 1017.1 0 76
2018-04-21 00:00:00 15.9 8 Sur 15 Sudeste 0 1017.2 0.9 71
2018-04-20 23:00:00 15.9 7 Sur 17 Sur 0.4 1017.7 1.7 75
2018-04-20 22:00:00 16.9 6 Sur 16 Noroeste 0 1017.1 0.8 64
2018-04-20 21:00:00 17.7 7 Noroeste 15 Noroeste 0 1016.3 0 64
2018-04-20 20:00:00 18.7 7 Noroeste 17 Noroeste 0 1016 -0.7 61
2018-04-20 19:00:00 18.5 8 Oeste 16 Oeste 0 1016.3 0.1 71
2018-04-20 18:00:00 18.3 8 Sudoeste 19 Sudoeste 0.1 1016.3 -1.1 70
2018-04-20 17:00:00 17.9 4 Sudoeste 25 Oeste 0 1016.7 -1.3 71
2018-04-20 16:00:00 18.5 8 Oeste 19 Oeste 0 1016.2 -1.3 57
2018-04-20 15:00:00 17.7 10 Sur 25 Noroeste 0.1 1017.4 -0.8 75
2018-04-20 14:00:00 16 19 Norte 36 Norte 0.2 1018 0.6 85
2018-04-20 13:00:00 18.3 4 Sur 14 Sur 0.2 1017.5 0 78
2018-04-20 12:00:00 16 10 Norte 28 Norte 1 1018.2 0.9 88
2018-04-20 11:00:00 17.1 3 Sudoeste 18 Sur 0 1017.4 0.3 82
2018-04-20 10:00:00 15.4 8 Sur 17 Nordeste 1.4 1017.5 1 91
2018-04-20 09:00:00 16.2 6 Sur 15 Sur 0.1 1017.3 0.7 86
2018-04-20 08:00:00 16.6 11 Nordeste 27 Nordeste 0 1017.1 0.7 78
2018-04-20 07:00:00 16.3 4 Sur 13 Sur 0 1016.5 -0.3 86
2018-04-20 06:00:00 16.2 12 Nordeste 30 Norte 0.4 1016.6 -0.6 85
2018-04-20 05:00:00 17.2 10 Nordeste 27 Norte 0 1016.4 -1.2 77
2018-04-20 04:00:00 17 2 Sudoeste 16 Sur 0 1016.8 -1.1 81
2018-04-20 03:00:00 16.1 6 Sur 41 Este 1.2 1017.2 -1 90
2018-04-20 02:00:00 17.7 4 Sur 9 Sur 0 1017.6 -0.8 82
2018-04-20 01:00:00 18.2 8 Nordeste 16 Nordeste 0 1017.9 0.1 81
2018-04-20 00:00:00 18.1 13 Nordeste 23 Nordeste 0 1018.2 1.3 82
2018-04-19 23:00:00 18.3 15 Norte 26 Norte 0 1018.4 2.3 78
2018-04-19 22:00:00 18 18 Nordeste 29 Norte 0.2 1017.8 2.1 85
2018-04-19 21:00:00 17.9 14 Norte 33 Nordeste 0.2 1016.9 1.6 89
2018-04-19 20:00:00 18.8 17 Norte 27 Norte 1.2 1016.1 1.1 88
2018-04-19 19:00:00 19.4 9 Norte 25 Norte 0 1015.7 0.3 90
2018-04-19 18:00:00 21.1 5 Noroeste 12 Noroeste 0 1015.3 -0.2 81
2018-04-19 17:00:00 21.8 4 Noroeste 13 Norte 0 1015 -1 75
2018-04-19 16:00:00 21.7 5 Noroeste 12 Nordeste 0 1015.4 -0.3 77
2018-04-19 15:00:00 21.5 6 Norte 13 Norte 0 1015.5 -1.1 76
2018-04-19 14:00:00 20.9 8 Norte 12 Norte 0 1016 0.2 77
2018-04-19 13:00:00 23.2 8 Nordeste 13 Norte 0 1015.7 0.3 71
2018-04-19 12:00:00 21.5 8 Nordeste 13 Norte 0 1016.6 0.7 77
2018-04-19 11:00:00 21.4 9 Nordeste 12 Nordeste 0 1015.8 -0.3 74
2018-04-19 10:00:00 20.9 5 Este 9 Nordeste 0 1015.4 -0.9 72
2018-04-19 09:00:00 20.1 2 Este 8 Sudeste 0 1015.9 -0.8 74
2018-04-19 08:00:00 17.7 5 Sur 12 Sur 0 1016.1 -0.7 76
2018-04-19 07:00:00 18.7 2 Norte 11 Sur 0 1016.3 -0.4 82
2018-04-19 06:00:00 18.5 7 Sur 17 Sur 0 1016.7 -0.7 81
2018-04-19 05:00:00 17.7 4 Sur 12 Sudeste 0 1016.8 -1 79
2018-04-19 04:00:00 17.5 5 Sur 10 Sur 0 1016.7 -1.3 82
2018-04-19 03:00:00 18.1 0 Calma 10 Sur 0 1017.4 -0.7 86
2018-04-19 02:00:00 18.5 3 Este 11 Nordeste 0 1017.8 0 88
2018-04-19 01:00:00 19.1 7 Nordeste 13 Nordeste 0 1018 1.1 89
2018-04-19 00:00:00 19.7 7 Nordeste 14 Nordeste 0 1018.1 1.4 88
2018-04-18 23:00:00 19.8 9 Nordeste 17 Nordeste 0 1017.8 1.4 87
2018-04-18 22:00:00 20.1 12 Nordeste 17 Nordeste 0 1016.9 0.6 85
2018-04-18 21:00:00 20.2 12 Nordeste 17 Nordeste 0 1016.7 0.6 84
2018-04-18 20:00:00 20.6 12 Nordeste 18 Este 0 1016.4 0.4 82
2018-04-18 19:00:00 21.1 12 Nordeste 16 Nordeste 0 1016.3 0.6 77
2018-04-18 18:00:00 22.4 13 Nordeste 16 Nordeste 0 1016.1 0 71
2018-04-18 17:00:00 23.2 12 Nordeste 20 Nordeste 0 1016 -1.1 68
2018-04-18 16:00:00 23.4 17 Nordeste 19 Nordeste 0 1015.7 -1.7 67
2018-04-18 15:00:00 23.9 12 Nordeste 15 Este 0 1016.1 -1.3 66
2018-04-18 14:00:00 23.3 9 Nordeste 16 Nordeste 0 1017.1 -0.9 67
2018-04-18 13:00:00 23.3 12 Nordeste 17 Norte 0 1017.4 -0.4 69
2018-04-18 12:00:00 22.4 10 Nordeste 13 Nordeste 0 1017.4 -0.3 70
2018-04-18 11:00:00 20.4 8 Nordeste 17 Nordeste 0 1018 0.6 75
2018-04-18 10:00:00 20.3 5 Este 13 Nordeste 0 1017.8 1.2 78
2018-04-18 09:00:00 18.7 2 Sudeste 9 Este 0 1017.7 1.7 82
2018-04-18 08:00:00 18 2 Sur 8 Sur 0 1017.4 1 85
2018-04-18 07:00:00 17.8 4 Sur 12 Sudeste 0 1016.6 0.2 84
2018-04-18 06:00:00 18.3 4 Sudeste 12 Este 0 1016 -1 83
2018-04-18 05:00:00 18.3 4 Sudeste 10 Sudeste 0 1016.4 -0.3 84
2018-04-18 04:00:00 18.3 3 Sudeste 9 Sudeste 0 1016.4 -0.9 85
2018-04-18 03:00:00 18.4 2 Sur 10 Sur 0 1017 -0.5 86
2018-04-18 02:00:00 18.3 3 Este 13 Este 0 1016.7 -0.5 87
2018-04-18 01:00:00 18.9 5 Este 14 Nordeste 0 1017.3 0.5 85
2018-04-18 00:00:00 19.1 2 Este 16 Este 0 1017.5 1.5 85
2018-04-17 23:00:00 19.3 13 Nordeste 20 Nordeste 0 1017.2 1.3 86
2018-04-17 22:00:00 19.6 14 Nordeste 20 Nordeste 0 1016.8 1.1 86
2018-04-17 21:00:00 19.9 12 Nordeste 15 Nordeste 0 1016 0.6 85
2018-04-17 20:00:00 20.2 12 Nordeste 16 Este 0 1015.9 0.4 84
2018-04-17 19:00:00 21 13 Nordeste 17 Nordeste 0 1015.7 -0.3 78
2018-04-17 18:00:00 21.4 13 Nordeste 17 Nordeste 0 1015.4 -0.7 76
2018-04-17 17:00:00 21.7 14 Nordeste 19 Nordeste 0 1015.5 -1.3 74
2018-04-17 16:00:00 21.9 17 Nordeste 23 Nordeste 0 1016 -1.3 73
2018-04-17 15:00:00 22.6 19 Nordeste 23 Nordeste 0 1016.1 -1.2 70
2018-04-17 14:00:00 22.3 18 Nordeste 52 Nordeste 0 1016.8 -0.6 71
2018-04-17 13:00:00 22.5 18 Nordeste 24 Este 0 1017.3 -0.2 71
2018-04-17 12:00:00 22 8 Nordeste 12 Nordeste 0 1017.3 0.1 68
2018-04-17 11:00:00 20 7 Norte 11 Norte 0 1017.4 0.5 74
2018-04-17 10:00:00 19.7 2 Noroeste 7 Este 0 1017.5 0.9 74
2018-04-17 09:00:00 19.1 2 Sudeste 10 Sudeste 0 1017.2 0.9 74
2018-04-17 08:00:00 17.9 0 Calma 7 Sur 0 1016.9 0.4 78
2018-04-17 07:00:00 18.2 0 Calma 8 Sudeste 0 1016.6 -0.3 77
2018-04-17 06:00:00 18.3 3 Sudeste 13 Este 0 1016.3 -1 75
2018-04-17 05:00:00 18.3 2 Sudeste 10 Sur 0 1016.5 -1 77
2018-04-17 04:00:00 17.7 7 Sur 14 Sudeste 0 1016.9 -0.9 75
2018-04-17 03:00:00 18.1 4 Sudeste 12 Sudeste 0 1017.3 -0.8 77
2018-04-17 02:00:00 18.7 0 Calma 11 Nordeste 0 1017.5 -0.6 83
2018-04-17 01:00:00 18.7 8 Nordeste 17 Nordeste 0 1017.8 0.4 86
2018-04-17 00:00:00 18.9 15 Nordeste 21 Nordeste 0 1018.1 1.5 86
2018-04-16 23:00:00 19.1 14 Nordeste 22 Nordeste 0 1018.1 1.8 86
2018-04-16 22:00:00 19.1 16 Nordeste 23 Nordeste 0 1017.4 1.3 87
2018-04-16 21:00:00 19.4 16 Nordeste 20 Nordeste 0 1016.6 0.6 85
2018-04-16 20:00:00 20.3 15 Nordeste 22 Nordeste 0 1016.3 0.2 82
2018-04-16 19:00:00 20.9 17 Nordeste 24 Nordeste 0 1016.1 -0.4 78
2018-04-16 18:00:00 21.6 19 Nordeste 28 Nordeste 0 1016 -1 74
2018-04-16 17:00:00 22.3 21 Nordeste 28 Nordeste 0 1016.1 -1.6 73
2018-04-16 16:00:00 21.8 22 Nordeste 28 Nordeste 0 1016.5 -1.8 74
2018-04-16 15:00:00 21.9 19 Nordeste 28 Nordeste 0 1017 -1.6 73
2018-04-16 14:00:00 21.9 22 Nordeste 29 Nordeste 0 1017.7 -0.9 76
2018-04-16 13:00:00 21.9 19 Nordeste 30 Nordeste 0 1018.3 -0.4 74
2018-04-16 12:00:00 21.7 17 Nordeste 23 Nordeste 0 1018.6 0 73
2018-04-16 11:00:00 20.7 10 Nordeste 16 Nordeste 0 1018.6 0.1 73
2018-04-16 10:00:00 18.4 5 Noroeste 10 Noroeste 0 1018.7 0.4 80
2018-04-16 09:00:00 18.4 0 Calma 8 Sur 0 1018.6 0.7 76
2018-04-16 08:00:00 15 5 Sur 9 Sur 0 1018.5 0 80
2018-04-16 07:00:00 15.5 4 Sur 14 Sudeste 0 1018.3 -0.3 81
2018-04-16 06:00:00 15.4 7 Sur 14 Sur 0 1017.9 -1.6 78
2018-04-16 05:00:00 16 6 Sur 11 Sudeste 0 1018.5 -1.4 79
2018-04-16 04:00:00 16.8 4 Sur 11 Sur 0 1018.6 -2 81
2018-04-16 03:00:00 17.1 6 Sur 11 Sur 0 1019.5 -1.2 78
2018-04-16 02:00:00 18.2 5 Sudeste 12 Sudeste 0 1019.9 -0.8 77
2018-04-16 01:00:00 17.6 3 Sur 8 Sur 0 1020.6 0.8 83
2018-04-16 00:00:00 17.4 4 Sudeste 10 Sur 0 1020.7 1.3 83
2018-04-15 23:00:00 17.8 3 Sur 12 Sudeste 0 1020.7 1.7 84
2018-04-15 22:00:00 18.6 10 Este 25 Nordeste 0 1019.8 0.9 88
2018-04-15 21:00:00 19 18 Nordeste 27 Nordeste 0 1019.4 0.3 87
2018-04-15 20:00:00 19.3 19 Nordeste 26 Nordeste 0 1019 0.2 85
2018-04-15 19:00:00 19.5 16 Nordeste 22 Nordeste 0 1018.9 -0.5 85
2018-04-15 18:00:00 19.5 17 Nordeste 22 Nordeste 0 1019.1 -0.8 83
2018-04-15 17:00:00 20.4 13 Nordeste 18 Nordeste 0 1018.8 -1.3 79
2018-04-15 16:00:00 20.5 15 Nordeste 21 Este 0 1019.4 -1.3 79
2018-04-15 15:00:00 20.6 11 Nordeste 20 Nordeste 0 1019.9 -0.9 78
2018-04-15 14:00:00 21.2 11 Nordeste 18 Este 0 1020.1 -0.6 74
2018-04-15 13:00:00 20.2 14 Nordeste 20 Nordeste 0 1020.7 -0.4 78
2018-04-15 12:00:00 19.6 15 Nordeste 24 Nordeste 0 1020.8 0.2 79
2018-04-15 11:00:00 19.6 14 Nordeste 23 Este 0 1020.7 -0.1 77
2018-04-15 10:00:00 18.8 9 Nordeste 18 Este 0 1021.1 0.7 81
2018-04-15 09:00:00 18.5 5 Este 15 Este 0 1020.6 0.1 73
2018-04-15 08:00:00 17.7 5 Sudeste 12 Sur 0 1020.8 -0.1 75
2018-04-15 07:00:00 17.8 4 Sudeste 10 Este 0 1020.4 -0.7 75
2018-04-15 06:00:00 17.6 4 Sudeste 12 Sudeste 0 1020.5 -1.1 76
2018-04-15 05:00:00 17.4 4 Sudeste 10 Sur 0 1020.9 -1 79
2018-04-15 04:00:00 17.2 4 Sur 10 Sudeste 0 1021.1 -1 79
2018-04-15 03:00:00 16.7 3 Sur 10 Sur 0 1021.6 -0.5 81
2018-04-15 02:00:00 17.1 5 Sur 12 Sur 0 1021.9 -0.1 81
2018-04-15 01:00:00 17.5 4 Sudeste 9 Sudeste 0 1022.1 0.6 79
2018-04-15 00:00:00 17.6 3 Sudeste 13 Este 0 1022.1 1.5 79
2018-04-14 23:00:00 18.6 13 Nordeste 20 Nordeste 0 1022 1.8 78
2018-04-14 22:00:00 18.6 18 Nordeste 24 Nordeste 0 1021.5 1.6 76
2018-04-14 21:00:00 18.9 16 Nordeste 20 Nordeste 0 1020.6 0.8 75
2018-04-14 20:00:00 20.7 13 Nordeste 18 Nordeste 0 1020.2 0.1 68
2018-04-14 19:00:00 21.7 12 Nordeste 22 Nordeste 0 1019.9 -0.4 63
2018-04-14 18:00:00 22.4 17 Nordeste 22 Nordeste 0 1019.8 -0.8 63
2018-04-14 17:00:00 22.4 17 Nordeste 21 Nordeste 0 1020.1 -1.1 60
2018-04-14 16:00:00 23.3 15 Nordeste 21 Nordeste 0 1020.3 -1.3 57
2018-04-14 15:00:00 23.4 15 Nordeste 24 Nordeste 0 1020.6 -1.1 59
2018-04-14 14:00:00 21.4 18 Nordeste 24 Nordeste 0 1021.2 -0.3 64
2018-04-14 13:00:00 21.8 16 Nordeste 21 Nordeste 0 1021.6 0.4 63
2018-04-14 12:00:00 20.7 16 Nordeste 20 Nordeste 0 1021.7 0.3 67
2018-04-14 11:00:00 20.3 13 Nordeste 18 Nordeste 0 1021.5 0.8 66
2018-04-14 10:00:00 19.8 4 Nordeste 12 Este 0 1021.2 1 63
2018-04-14 09:00:00 17.5 3 Sudeste 10 Sur 0 1021.4 1.4 75
2018-04-14 08:00:00 16.2 5 Sur 13 Sur 0 1020.7 0.4 78
2018-04-14 07:00:00 15.8 7 Sur 14 Sur 0 1020.2 -0.2 78
2018-04-14 06:00:00 16 6 Sur 15 Sur 0 1020 -0.7 75
2018-04-14 05:00:00 16.1 6 Sur 12 Sudeste 0 1020.3 -1.1 72
2018-04-14 04:00:00 17 4 Sur 11 Sudeste 0 1020.4 -1.1 69
2018-04-14 03:00:00 17.2 4 Sur 11 Sudeste 0 1020.7 -1 71
2018-04-14 02:00:00 17.3 5 Sudeste 12 Sudeste 0 1021.4 -0.2 72
2018-04-14 01:00:00 18 3 Este 9 Nordeste 0 1021.5 0.4 70
2018-04-14 00:00:00 18.4 6 Nordeste 15 Norte 0 1021.7 1.3 68
2018-04-13 23:00:00 18.5 6 Nordeste 15 Norte 0 1021.6 1.9 71
2018-04-13 22:00:00 18.5 8 Nordeste 18 Nordeste 0 1021.1 1.7 69
2018-04-13 21:00:00 18.6 10 Nordeste 17 Nordeste 0 1020.4 1.1 70
2018-04-13 20:00:00 19.4 8 Nordeste 14 Nordeste 0 1019.7 0.4 67
2018-04-13 19:00:00 18.8 8 Norte 23 Norte 0 1019.4 0 67
2018-04-13 18:00:00 19.5 6 Norte 15 Norte 0 1019.3 -0.5 66
2018-04-13 17:00:00 20.1 11 Nordeste 17 Norte 0 1019.3 -1 67
2018-04-13 16:00:00 19.9 11 Nordeste 22 Nordeste 0 1019.4 -1 67
2018-04-13 15:00:00 19.9 11 Nordeste 22 Norte 0 1019.8 -0.8 66
2018-04-13 14:00:00 19.3 11 Norte 17 Norte 0 1020.3 0 67
2018-04-13 13:00:00 19.1 8 Norte 21 Nordeste 0 1020.4 0.8 65
2018-04-13 12:00:00 19.3 11 Norte 18 Norte 0 1020.6 1.1 67
2018-04-13 11:00:00 19.6 9 Nordeste 16 Norte 0 1020.3 1.9 69
2018-04-13 10:00:00 20.5 4 Este 13 Norte 0 1019.6 1.3 66
2018-04-13 09:00:00 18.1 4 Noroeste 14 Sur 0 1019.5 1.3 70
2018-04-13 08:00:00 16.9 5 Sur 22 Sur 0 1018.4 0.1 69
2018-04-13 07:00:00 16.7 6 Sur 17 Sur 0 1018.3 -0.8 74
2018-04-13 06:00:00 17.2 9 Sur 18 Sur 0 1018.2 -1.1 76
2018-04-13 05:00:00 16.8 7 Sur 15 Sur 0 1018.3 -1.2 84
2018-04-13 04:00:00 17 5 Sur 11 Sur 0 1019.1 -0.2 86
2018-04-13 03:00:00 17.9 5 Norte 19 Norte 0 1019.3 0.5 78
2018-04-13 02:00:00 18 5 Norte 23 Noroeste 0.2 1019.5 0.7 86
2018-04-13 01:00:00 18.6 7 Oeste 27 Noroeste 0 1019.3 0.9 92
2018-04-13 00:00:00 19.3 13 Noroeste 26 Noroeste 0 1018.8 1 88
2018-04-12 23:00:00 19.5 6 Sur 13 Sudoeste 0 1018.8 0.8 77
2018-04-12 22:00:00 19.3 4 Sudoeste 12 Sudoeste 0 1018.4 0.6 81
2018-04-12 21:00:00 19.4 4 Sudoeste 12 Oeste 0 1017.8 0.5 79
2018-04-12 20:00:00 19.4 8 Oeste 19 Noroeste 0 1018 0.4 82
2018-04-12 19:00:00 19.4 11 Oeste 20 Noroeste 0 1017.8 -0.2 80
2018-04-12 18:00:00 19.9 11 Noroeste 19 Oeste 0 1017.3 -1.6 75
2018-04-12 17:00:00 20.1 11 Noroeste 16 Noroeste 0 1017.6 -0.8 73
2018-04-12 16:00:00 20.3 11 Noroeste 20 Noroeste 0 1018 -0.8 72
2018-04-12 15:00:00 19.9 12 Noroeste 24 Oeste 0 1018.9 -1.1 75
2018-04-12 14:00:00 20.5 12 Noroeste 21 Noroeste 0 1018.4 -1.8 64
2018-04-12 13:00:00 21.2 5 Oeste 14 Noroeste 0 1018.8 -1.2 60
2018-04-12 12:00:00 20 6 Noroeste 12 Noroeste 0 1020 0.5 73
2018-04-12 11:00:00 19 3 Oeste 19 Noroeste 0 1020.2 2.2 78
2018-04-12 10:00:00 18.5 11 Noroeste 18 Noroeste 0 1020 2 82
2018-04-12 09:00:00 18 5 Sur 14 Sudoeste 0 1019.5 1.5 78
2018-04-12 08:00:00 16.9 0 Calma 12 Sur 0 1018 0.3 85
2018-04-12 07:00:00 16.8 3 Sur 16 Sur 0 1018 -0.3 86
2018-04-12 06:00:00 16.8 4 Sur 20 Norte 0 1018 -1 92
2018-04-12 05:00:00 17.2 12 Norte 20 Nordeste 0 1017.7 -2 92
2018-04-12 04:00:00 17.6 0 Calma 16 Sur 0 1018.3 -2.2 75
2018-04-12 03:00:00 17.9 6 Sur 17 Sur 0 1019 -1.9 76
2018-04-12 02:00:00 18.2 9 Sur 19 Sur 0 1019.7 -1 77
2018-04-12 01:00:00 17.6 8 Sur 16 Sur 0 1020.5 0.7 89
2018-04-12 00:00:00 17.7 0 Calma 13 Norte 0.5 1020.9 1.7 92
2018-04-11 23:00:00 18.1 9 Norte 19 Norte 0 1020.7 1.4 93
2018-04-11 22:00:00 19.1 3 Oeste 9 Oeste 0 1019.8 0.5 86
2018-04-11 21:00:00 19.2 3 Sur 15 Sur 0 1019.2 0.1 78
2018-04-11 20:00:00 19 5 Sur 15 Sur 0 1019.3 0 86
2018-04-11 19:00:00 19.1 7 Sur 13 Sudoeste 0 1019.3 -0.2 85
2018-04-11 18:00:00 20 2 Norte 15 Nordeste 0 1019.1 -0.4 79
2018-04-11 17:00:00 19.4 8 Norte 17 Norte 0 1019.3 -0.6 84
2018-04-11 16:00:00 19.6 6 Norte 16 Nordeste 0 1019.5 -0.9 81
2018-04-11 15:00:00 20.4 4 Norte 13 Nordeste 0 1019.5 -1.1 80
2018-04-11 14:00:00 20.4 4 Noroeste 11 Norte 0 1019.9 -0.9 77
2018-04-11 13:00:00 20.9 8 Norte 13 Norte 0 1020.4 0.3 74
2018-04-11 12:00:00 20.5 4 Norte 9 Nordeste 0 1020.6 0.2 74
2018-04-11 11:00:00 19.7 6 Noroeste 21 Noroeste 0 1020.8 0.6 81
2018-04-11 10:00:00 20 3 Sur 16 Sudoeste 0 1020.1 0.2 65
2018-04-11 09:00:00 18.5 3 Sudoeste 21 Sur 0 1020.4 0.7 65
2018-04-11 08:00:00 16.9 9 Sur 17 Sudeste 0 1020.2 0.2 67
2018-04-11 07:00:00 16.9 6 Sur 24 Sur 0 1019.9 -0.4 66
2018-04-11 06:00:00 17.2 11 Sur 21 Sur 0 1019.7 -1 64
2018-04-11 05:00:00 17.5 8 Sur 17 Sudeste 0 1020 -1.5 65
2018-04-11 04:00:00 17.7 4 Sur 15 Sudoeste 0 1020.3 -1.6 66
2018-04-11 03:00:00 17.4 9 Sur 15 Sur 0 1020.7 -1.5 68
2018-04-11 02:00:00 16.8 5 Sur 12 Sur 0 1021.5 -0.7 73
2018-04-11 01:00:00 16.6 5 Sur 13 Sur 0 1021.9 -0.2 74
2018-04-11 00:00:00 16.9 5 Sur 11 Sur 0 1022.2 0.7 71
2018-04-10 23:00:00 17.8 0 Calma 9 Sur 0 1022.2 0.9 75
2018-04-10 22:00:00 18.4 0 Calma 7 Oeste 0 1022.1 1.2 74
2018-04-10 21:00:00 18.4 3 Noroeste 9 Noroeste 0 1021.5 0.6 74
2018-04-10 20:00:00 18.5 3 Oeste 10 Noroeste 0 1021.3 0.2 74
2018-04-10 19:00:00 18.8 3 Norte 10 Norte 0 1020.9 -0.6 74
2018-04-10 18:00:00 19.2 6 Norte 15 Nordeste 0 1020.9 -0.8 71
2018-04-10 17:00:00 20.1 12 Nordeste 19 Nordeste 0 1021.1 -0.9 69
2018-04-10 16:00:00 21 12 Nordeste 19 Norte 0 1021.5 -0.9 69
2018-04-10 15:00:00 21.3 9 Nordeste 17 Nordeste 0 1021.7 -1.1 65
2018-04-10 14:00:00 21.5 12 Nordeste 21 Norte 0 1022 -0.7 60
2018-04-10 13:00:00 22 13 Nordeste 19 Nordeste 0 1022.4 -0.2 58
2018-04-10 12:00:00 21.4 14 Nordeste 18 Nordeste 0 1022.8 0.4 59
2018-04-10 11:00:00 20.2 13 Nordeste 22 Nordeste 0 1022.7 0.6 62
2018-04-10 10:00:00 18.6 12 Nordeste 17 Sudeste 0 1022.6 0.6 63
2018-04-10 09:00:00 16.5 6 Sudeste 16 Sur 0 1022.4 0.4 61
2018-04-10 08:00:00 16.7 6 Sudeste 20 Este 0 1022.1 -0.1 67
2018-04-10 07:00:00 16.9 4 Sudeste 22 Nordeste 0 1022 -0.4 62
2018-04-10 06:00:00 15.3 8 Sur 18 Sur 0 1022 -0.9 68
2018-04-10 05:00:00 16.1 6 Sur 11 Sur 0 1022.2 -1.4 66
2018-04-10 04:00:00 16.5 4 Este 15 Sur 0 1022.4 -1.4 65
2018-04-10 03:00:00 16.1 6 Sur 15 Sur 0 1022.9 -0.7 67
2018-04-10 02:00:00 16.1 9 Sur 17 Sur 0 1023.6 0.2 69
2018-04-10 01:00:00 16.4 6 Sur 24 Nordeste 0 1023.8 0.8 71
2018-04-10 00:00:00 17.6 21 Nordeste 29 Nordeste 0 1023.6 1.2 71
2018-04-09 23:00:00 17.9 18 Nordeste 25 Nordeste 0 1023.4 1.4 74
2018-04-09 22:00:00 17.9 7 Nordeste 15 Nordeste 0.1 1023 1.5 72
2018-04-09 21:00:00 17.9 6 Sur 32 Nordeste 0 1022.4 0.7 68
2018-04-09 20:00:00 18.9 4 Este 10 Nordeste 0 1022 0.4 61
2018-04-09 19:00:00 20.8 2 Nordeste 15 Este 0 1021.5 -1 58
2018-04-09 18:00:00 19.6 10 Este 28 Norte 0 1021.7 -1.1 62
2018-04-09 17:00:00 21 6 Nordeste 14 Norte 0 1021.6 -1.5 57
2018-04-09 16:00:00 20.3 7 Este 15 Este 0 1022.5 -1 58
2018-04-09 15:00:00 20 4 Nordeste 14 Norte 0 1022.8 -1.2 61
2018-04-09 14:00:00 19.1 0 Calma 22 Nordeste 0 1023.1 -0.7 64
2018-04-09 13:00:00 18.8 5 Norte 18 Nordeste 0 1023.5 -0.2 61
2018-04-09 12:00:00 18 15 Nordeste 27 Norte 0 1024 0.6 73
2018-04-09 11:00:00 18.7 12 Nordeste 31 Nordeste 0 1023.8 0.7 61
2018-04-09 10:00:00 17.9 0 Calma 10 Sur 0 1023.7 1.4 71
2018-04-09 09:00:00 17 5 Sudoeste 11 Sur 0 1023.4 1.9 70
2018-04-09 08:00:00 16.8 0 Calma 26 Nordeste 0 1023.1 1.6 74
2018-04-09 07:00:00 17.1 22 Nordeste 36 Nordeste 0 1022.3 0.9 75
2018-04-09 06:00:00 17.5 27 Nordeste 35 Nordeste 0 1021.5 0.2 85
2018-04-09 05:00:00 17.3 4 Sur 19 Nordeste 0 1021.5 -0.1 88
2018-04-09 04:00:00 17.5 0 Calma 9 Este 0.3 1021.4 -0.2 89
2018-04-09 03:00:00 17.5 5 Sudeste 17 Nordeste 0.1 1021.3 -1.1 88
2018-04-09 02:00:00 18 4 Sudeste 26 Nordeste 0 1021.6 -0.6 87
2018-04-09 01:00:00 17.4 6 Sudeste 17 Sudeste 0.1 1021.6 -0.3 90
2018-04-09 00:00:00 16.7 9 Este 23 Este 0.6 1022.4 1.5 94
2018-04-08 23:00:00 17.8 7 Sudeste 16 Sudeste 0.2 1022.2 1.9 88
2018-04-08 22:00:00 17.8 7 Sudeste 42 Este 0.5 1021.9 2.3 88
2018-04-08 21:00:00 18.9 7 Este 21 Nordeste 0 1020.9 1.2 85
2018-04-08 20:00:00 19.4 13 Nordeste 22 Nordeste 0 1020.3 0.8 82
2018-04-08 19:00:00 19.9 14 Nordeste 19 Nordeste 0 1019.6 -0.2 79
2018-04-08 18:00:00 20.2 6 Nordeste 20 Este 0 1019.7 -0.6 71
2018-04-08 17:00:00 21.6 11 Nordeste 18 Nordeste 0 1019.5 -1.3 67
2018-04-08 16:00:00 22.2 10 Nordeste 18 Nordeste 0 1019.8 -1.8 64
2018-04-08 15:00:00 20.1 5 Este 23 Nordeste 0 1020.3 -1.3 74
2018-04-08 14:00:00 20.9 9 Este 23 Nordeste 0 1020.8 -0.3 65
2018-04-08 13:00:00 19 6 Sudeste 20 Norte 0.4 1021.6 0.6 78
2018-04-08 12:00:00 19.2 3 Sur 29 Nordeste 0 1021.6 0.9 68
2018-04-08 11:00:00 19.1 12 Este 27 Nordeste 0 1021.1 1.2 65
2018-04-08 10:00:00 18.3 9 Nordeste 14 Este 0 1021 1.6 77
2018-04-08 09:00:00 17.1 4 Sudeste 23 Este 0 1020.7 1.6 78
2018-04-08 08:00:00 16.4 4 Sur 15 Nordeste 0.2 1019.9 0.7 77
2018-04-08 07:00:00 17.3 5 Sudeste 12 Sudeste 0 1019.4 0.1 69
2018-04-08 06:00:00 17.1 7 Sudeste 18 Sur 0 1019.1 -0.4 74
2018-04-08 05:00:00 15.9 8 Sur 14 Sur 0 1019.2 -0.6 72
2018-04-08 04:00:00 16.1 8 Sur 18 Sur 0 1019.3 -0.7 68
2018-04-08 03:00:00 16.9 5 Sur 15 Sur 0 1019.5 -0.5 70
2018-04-08 02:00:00 17.4 2 Sudeste 14 Nordeste 0 1019.8 0 74
2018-04-08 01:00:00 17.9 9 Este 18 Nordeste 0 1020 1 73
2018-04-08 00:00:00 18.2 6 Nordeste 13 Nordeste 0 1020 2.1 72
2018-04-07 23:00:00 18.5 10 Nordeste 17 Este 0 1019.8 2.5 68
2018-04-07 22:00:00 17.9 5 Este 17 Nordeste 0 1019 2.1 66
2018-04-07 21:00:00 18.7 6 Nordeste 11 Nordeste 0 1017.9 1.5 66
2018-04-07 20:00:00 19.8 8 Nordeste 12 Nordeste 0 1017.3 1.1 61
2018-04-07 19:00:00 21.2 4 Nordeste 15 Norte 0 1016.9 0.4 54
2018-04-07 18:00:00 21.8 9 Nordeste 16 Nordeste 0 1016.4 -0.7 52
2018-04-07 17:00:00 22.2 8 Nordeste 15 Nordeste 0 1016.2 -1.4 53
2018-04-07 16:00:00 22 10 Nordeste 15 Nordeste 0 1016.5 -1.4 54
2018-04-07 15:00:00 20.6 6 Nordeste 14 Norte 0 1017.1 -0.7 59
2018-04-07 14:00:00 19.1 4 Sur 18 Sur 0 1017.6 0.1 67
2018-04-07 13:00:00 17.8 4 Noroeste 23 Nordeste 0 1017.9 0.9 74
2018-04-07 12:00:00 18.7 4 Sudeste 15 Sur 0 1017.8 1.2 71
2018-04-07 11:00:00 17.2 7 Sur 18 Sudoeste 0 1017.5 1.8 80
2018-04-07 10:00:00 16.2 7 Sur 19 Sur 0.1 1017 2 86
2018-04-07 09:00:00 16.4 2 Sur 17 Sur 0.1 1016.6 1.7 79
2018-04-07 08:00:00 16.5 8 Sur 15 Sur 0 1015.7 0.7 81
2018-04-07 07:00:00 16.8 5 Sur 18 Sur 0 1015 0 71
2018-04-07 06:00:00 16.6 8 Sur 16 Sur 0 1014.9 0.1 78
2018-04-07 05:00:00 16.4 8 Sur 23 Sur 0 1015 -0.4 81
2018-04-07 04:00:00 17.2 3 Noroeste 19 Noroeste 0 1015 -0.4 79
2018-04-07 03:00:00 17.5 2 Sur 17 Sur 0 1014.8 -0.8 78
2018-04-07 02:00:00 17.2 5 Sur 15 Sur 0.4 1015.4 -0.1 83
2018-04-07 01:00:00 18 3 Sur 16 Sur 0 1015.4 0.5 87
2018-04-07 00:00:00 17.9 4 Sur 13 Sudoeste 0.6 1015.6 1.4 89
2018-04-06 23:00:00 18.5 3 Norte 14 Sur 0 1015.5 1.3 83
2018-04-06 22:00:00 17.9 6 Sur 18 Sur 0 1014.9 1.7 88
2018-04-06 21:00:00 18.2 0 Calma 16 Nordeste 0 1014.2 1.2 86
2018-04-06 20:00:00 18.1 12 Sudoeste 31 Oeste 0 1014.2 0.7 82
2018-04-06 19:00:00 20.6 9 Oeste 18 Sudoeste 0 1013.2 -0.2 65
2018-04-06 18:00:00 20.1 11 Oeste 26 Noroeste 0 1013 -0.6 76
2018-04-06 17:00:00 19.9 15 Oeste 26 Noroeste 0 1013.5 -0.7 76
2018-04-06 16:00:00 20.4 9 Noroeste 16 Oeste 0 1013.4 -1.6 67
2018-04-06 15:00:00 20.3 6 Noroeste 15 Noroeste 0 1013.6 -1.3 64
2018-04-06 14:00:00 20.5 6 Noroeste 14 Noroeste 0 1014.2 -1.1 63
2018-04-06 13:00:00 19.7 10 Noroeste 15 Noroeste 0 1015 0.2 67
2018-04-06 12:00:00 19.8 5 Noroeste 10 Noroeste 0 1014.9 0.5 66
2018-04-06 11:00:00 19.3 4 Noroeste 8 Noroeste 0 1015.3 0.9 65
2018-04-06 10:00:00 19.5 0 Calma 6 Nordeste 0 1014.8 0.8 63
2018-04-06 09:00:00 17.3 4 Sur 15 Sudeste 0 1014.4 -0.2 70
2018-04-06 08:00:00 15 5 Sur 11 Sudeste 0 1014.4 0 78
2018-04-06 07:00:00 15.1 5 Sur 15 Sur 0 1014 -0.8 78
2018-04-06 06:00:00 15.1 6 Sur 14 Sur 0 1014.6 -1 77
2018-04-06 05:00:00 15.3 6 Sur 12 Sudeste 0 1014.4 -1.4 75
2018-04-06 04:00:00 16 5 Sur 11 Sur 0 1014.8 -1.3 74
2018-04-06 03:00:00 16.5 5 Sur 12 Sur 0 1015.6 -0.5 71
2018-04-06 02:00:00 17.2 6 Sur 14 Sur 0 1015.8 -0.5 68
2018-04-06 01:00:00 17.9 5 Sur 15 Sur 0 1016.1 0.4 67
2018-04-06 00:00:00 18.3 5 Sur 10 Sudeste 0 1016.1 1.1 68
2018-04-05 23:00:00 18.5 3 Nordeste 14 Nordeste 0 1016.3 1.9 70
2018-04-05 22:00:00 18.5 8 Nordeste 13 Norte 0 1015.7 1.7 71
2018-04-05 21:00:00 19 8 Nordeste 12 Nordeste 0 1015 1 68
2018-04-05 20:00:00 20.1 9 Nordeste 16 Nordeste 0 1014.4 0.3 63
2018-04-05 19:00:00 21.7 12 Nordeste 17 Nordeste 0 1014 -0.6 58
2018-04-05 18:00:00 22.2 13 Nordeste 20 Nordeste 0 1014 -1.1 57
2018-04-05 17:00:00 22.9 12 Nordeste 19 Nordeste 0 1014.1 -1.9 55
2018-04-05 16:00:00 22.9 12 Nordeste 18 Nordeste 0 1014.6 -1.8 55
2018-04-05 15:00:00 22 13 Nordeste 19 Nordeste 0 1015.1 -1.7 55
2018-04-05 14:00:00 21.5 14 Nordeste 24 Nordeste 0 1016 -0.8 59
2018-04-05 13:00:00 20.5 19 Nordeste 27 Nordeste 0 1016.4 0.2 64
2018-04-05 12:00:00 20.5 15 Nordeste 23 Nordeste 0 1016.8 0.4 64
2018-04-05 11:00:00 19.6 15 Nordeste 22 Nordeste 0 1016.8 0.8 67
2018-04-05 10:00:00 19.6 14 Nordeste 21 Nordeste 0 1016.2 0.6 67
2018-04-05 09:00:00 17.2 4 Sur 12 Sur 0 1016.4 1 70
2018-04-05 08:00:00 15.6 8 Sur 19 Sur 0 1016 0.2 72
2018-04-05 07:00:00 15.7 5 Sur 12 Sudeste 0 1015.6 -0.6 74
2018-04-05 06:00:00 16.8 4 Sur 10 Sudeste 0 1015.4 -1 72
2018-04-05 05:00:00 17.3 4 Sudeste 19 Nordeste 0 1015.8 -1.4 71
2018-04-05 04:00:00 17.4 4 Sur 11 Sur 0 1016.2 -1.2 68
2018-04-05 03:00:00 17 6 Sur 16 Sudeste 0 1016.4 -1.2 68
2018-04-05 02:00:00 16.4 5 Sur 15 Sur 0 1017.2 -0.4 71
2018-04-05 01:00:00 16 5 Sudeste 14 Sur 0 1017.4 0.5 73
2018-04-05 00:00:00 16.3 6 Sur 15 Sur 0 1017.6 1.5 73
2018-04-04 23:00:00 16.5 5 Sur 18 Nordeste 0 1017.6 1.8 72
2018-04-04 22:00:00 17 7 Sudeste 32 Este 0 1016.9 0.9 71
2018-04-04 21:00:00 18.2 24 Nordeste 31 Nordeste 0 1016.1 0.1 75
2018-04-04 20:00:00 19.1 23 Nordeste 30 Nordeste 0 1015.8 -0.3 70
2018-04-04 19:00:00 20.3 16 Nordeste 25 Nordeste 0 1016 -0.3 66
2018-04-04 18:00:00 20.5 19 Nordeste 31 Nordeste 0 1016 -0.4 67
2018-04-04 17:00:00 19.9 27 Nordeste 38 Nordeste 0 1016.1 -0.5 71
2018-04-04 16:00:00 20.2 30 Nordeste 42 Nordeste 0 1016.3 -1 71
2018-04-04 15:00:00 20.3 33 Nordeste 44 Nordeste 0 1016.4 -1.1 74
2018-04-04 14:00:00 20.5 34 Nordeste 44 Nordeste 0 1016.6 -0.7 77
2018-04-04 13:00:00 20.5 27 Nordeste 35 Nordeste 0 1017.3 0.1 77
2018-04-04 12:00:00 20.7 18 Nordeste 26 Nordeste 0 1017.5 0.6 74
2018-04-04 11:00:00 20.7 15 Nordeste 21 Nordeste 0 1017.3 0.7 75
2018-04-04 10:00:00 19.5 9 Nordeste 14 Este 0 1017.2 1.2 82
2018-04-04 09:00:00 18.5 9 Este 18 Este 0 1016.9 1.2 82
2018-04-04 08:00:00 17.6 5 Sudeste 25 Este 0 1016.6 0.4 80
2018-04-04 07:00:00 18 17 Nordeste 24 Nordeste 0 1016 -0.2 88
2018-04-04 06:00:00 16.2 0 Calma 14 Sur 0 1015.7 -0.9 74
2018-04-04 05:00:00 15.9 7 Sur 15 Sur 0 1016.2 -0.6 71
2018-04-04 04:00:00 16 7 Sur 17 Sudeste 0 1016.2 -1 71
2018-04-04 03:00:00 16.5 6 Sur 12 Sur 0 1016.6 -0.5 73
2018-04-04 02:00:00 16.9 8 Sudeste 12 Sur 0 1016.8 0 74
2018-04-04 01:00:00 17.2 6 Sur 14 Sudeste 0 1017.2 1.3 73
2018-04-04 00:00:00 17.6 5 Sur 11 Sudeste 0 1017.1 1.9 78
2018-04-03 23:00:00 18.3 3 Sudeste 13 Nordeste 0 1016.8 2.3 78
2018-04-03 22:00:00 19.3 7 Este 12 Nordeste 0 1015.9 1.9 78
2018-04-03 21:00:00 19.5 9 Nordeste 15 Nordeste 0 1015.2 1.1 75
2018-04-03 20:00:00 20.6 8 Nordeste 12 Nordeste 0 1014.5 0.6 71
2018-04-03 19:00:00 22.3 7 Nordeste 12 Norte 0 1014 0 67
2018-04-03 18:00:00 22.4 7 Nordeste 10 Nordeste 0 1014.1 -0.1 67
2018-04-03 17:00:00 22.5 7 Nordeste 12 Nordeste 0 1013.9 -0.5 65
2018-04-03 16:00:00 21.6 9 Nordeste 14 Nordeste 0 1014 -0.6 69
2018-04-03 15:00:00 21.7 10 Nordeste 14 Nordeste 0 1014.2 -0.2 66
2018-04-03 14:00:00 22.8 10 Nordeste 17 Norte 0 1014.4 0.2 65
2018-04-03 13:00:00 21.4 11 Nordeste 18 Este 0 1014.6 0.4 68
2018-04-03 12:00:00 21.9 12 Nordeste 15 Nordeste 0 1014.4 0.3 70
2018-04-03 11:00:00 -- -- -- -- -- -- -- -- --
2018-04-03 10:00:00 -- -- -- -- -- -- -- -- --
2018-04-03 09:00:00 -- -- -- -- -- -- -- -- --
2018-04-03 08:00:00 -- -- -- -- -- -- -- -- --
2018-04-03 07:00:00 -- -- -- -- -- -- -- -- --
2018-04-03 06:00:00 -- -- -- -- -- -- -- -- --
2018-04-03 05:00:00 -- -- -- -- -- -- -- -- --
2018-04-03 04:00:00 -- -- -- -- -- -- -- -- --
2018-04-03 03:00:00 -- -- -- -- -- -- -- -- --
2018-04-03 02:00:00 -- -- -- -- -- -- -- -- --
2018-04-03 01:00:00 -- -- -- -- -- -- -- -- --
2018-04-03 00:00:00 -- -- -- -- -- -- -- -- --
2018-04-02 23:00:00 -- -- -- -- -- -- -- -- --
2018-04-02 22:00:00 -- -- -- -- -- -- -- -- --
2018-04-02 21:00:00 -- -- -- -- -- -- -- -- --
2018-04-02 20:00:00 -- -- -- -- -- -- -- -- --
2018-04-02 19:00:00 -- -- -- -- -- -- -- -- --
2018-04-02 18:00:00 -- -- -- -- -- -- -- -- --
2018-04-02 17:00:00 -- -- -- -- -- -- -- -- --
2018-04-02 16:00:00 -- -- -- -- -- -- -- -- --
2018-04-02 15:00:00 -- -- -- -- -- -- -- -- --
2018-04-02 14:00:00 -- -- -- -- -- -- -- -- --
2018-04-02 13:00:00 -- -- -- -- -- -- -- -- --
2018-04-02 12:00:00 -- -- -- -- -- -- -- -- --
2018-04-02 11:00:00 -- -- -- -- -- -- -- -- --
2018-04-02 10:00:00 -- -- -- -- -- -- -- -- --
2018-04-02 09:00:00 -- -- -- -- -- -- -- -- --
2018-04-02 08:00:00 -- -- -- -- -- -- -- -- --
2018-04-02 07:00:00 -- -- -- -- -- -- -- -- --
2018-04-02 06:00:00 -- -- -- -- -- -- -- -- --
2018-04-02 05:00:00 -- -- -- -- -- -- -- -- --
2018-04-02 04:00:00 -- -- -- -- -- -- -- -- --
2018-04-02 03:00:00 -- -- -- -- -- -- -- -- --
2018-04-02 02:00:00 -- -- -- -- -- -- -- -- --
2018-04-02 01:00:00 -- -- -- -- -- -- -- -- --
2018-04-02 00:00:00 -- -- -- -- -- -- -- -- --
2018-04-01 23:00:00 -- -- -- -- -- -- -- -- --
2018-04-01 22:00:00 -- -- -- -- -- -- -- -- --
2018-04-01 21:00:00 -- -- -- -- -- -- -- -- --
2018-04-01 20:00:00 -- -- -- -- -- -- -- -- --
2018-04-01 19:00:00 -- -- -- -- -- -- -- -- --
2018-04-01 18:00:00 -- -- -- -- -- -- -- -- --
2018-04-01 17:00:00 -- -- -- -- -- -- -- -- --
2018-04-01 16:00:00 -- -- -- -- -- -- -- -- --
2018-04-01 15:00:00 -- -- -- -- -- -- -- -- --
2018-04-01 14:00:00 -- -- -- -- -- -- -- -- --
2018-04-01 13:00:00 -- -- -- -- -- -- -- -- --
2018-04-01 12:00:00 -- -- -- -- -- -- -- -- --
2018-04-01 11:00:00 -- -- -- -- -- -- -- -- --
2018-04-01 10:00:00 -- -- -- -- -- -- -- -- --
2018-04-01 09:00:00 -- -- -- -- -- -- -- -- --
2018-04-01 08:00:00 -- -- -- -- -- -- -- -- --
2018-04-01 07:00:00 -- -- -- -- -- -- -- -- --
2018-04-01 06:00:00 -- -- -- -- -- -- -- -- --
2018-04-01 05:00:00 -- -- -- -- -- -- -- -- --
2018-04-01 04:00:00 -- -- -- -- -- -- -- -- --
2018-04-01 03:00:00 -- -- -- -- -- -- -- -- --
2018-04-01 02:00:00 -- -- -- -- -- -- -- -- --
2018-04-01 01:00:00 -- -- -- -- -- -- -- -- --
2018-04-01 00:00:00 -- -- -- -- -- -- -- -- --
2018-03-31 23:00:00 -- -- -- -- -- -- -- -- --
2018-03-31 22:00:00 -- -- -- -- -- -- -- -- --
2018-03-31 21:00:00 -- -- -- -- -- -- -- -- --
2018-03-31 20:00:00 -- -- -- -- -- -- -- -- --
2018-03-31 19:00:00 -- -- -- -- -- -- -- -- --
2018-03-31 18:00:00 -- -- -- -- -- -- -- -- --
2018-03-31 17:00:00 -- -- -- -- -- -- -- -- --
2018-03-31 16:00:00 -- -- -- -- -- -- -- -- --
2018-03-31 15:00:00 -- -- -- -- -- -- -- -- --
2018-03-31 14:00:00 -- -- -- -- -- -- -- -- --
2018-03-31 13:00:00 -- -- -- -- -- -- -- -- --
2018-03-31 12:00:00 -- -- -- -- -- -- -- -- --
2018-03-31 11:00:00 -- -- -- -- -- -- -- -- --
2018-03-31 10:00:00 -- -- -- -- -- -- -- -- --
2018-03-31 09:00:00 -- -- -- -- -- -- -- -- --
2018-03-31 08:00:00 -- -- -- -- -- -- -- -- --
2018-03-31 07:00:00 -- -- -- -- -- -- -- -- --
2018-03-31 06:00:00 -- -- -- -- -- -- -- -- --
2018-03-31 05:00:00 -- -- -- -- -- -- -- -- --
2018-03-31 04:00:00 -- -- -- -- -- -- -- -- --
2018-03-31 03:00:00 -- -- -- -- -- -- -- -- --
2018-03-31 02:00:00 -- -- -- -- -- -- -- -- --
2018-03-31 01:00:00 -- -- -- -- -- -- -- -- --
2018-03-31 00:00:00 -- -- -- -- -- -- -- -- --
2018-03-30 23:00:00 -- -- -- -- -- -- -- -- --
2018-03-30 22:00:00 -- -- -- -- -- -- -- -- --
2018-03-30 21:00:00 -- -- -- -- -- -- -- -- --
2018-03-30 20:00:00 -- -- -- -- -- -- -- -- --
2018-03-30 19:00:00 -- -- -- -- -- -- -- -- --
2018-03-30 18:00:00 -- -- -- -- -- -- -- -- --
2018-03-30 17:00:00 -- -- -- -- -- -- -- -- --
2018-03-30 16:00:00 -- -- -- -- -- -- -- -- --
2018-03-30 15:00:00 -- -- -- -- -- -- -- -- --
2018-03-30 14:00:00 -- -- -- -- -- -- -- -- --
2018-03-30 13:00:00 -- -- -- -- -- -- -- -- --
2018-03-30 12:00:00 -- -- -- -- -- -- -- -- --
2018-03-30 11:00:00 -- -- -- -- -- -- -- -- --
2018-03-30 10:00:00 -- -- -- -- -- -- -- -- --
2018-03-30 09:00:00 -- -- -- -- -- -- -- -- --
2018-03-30 08:00:00 -- -- -- -- -- -- -- -- --
2018-03-30 07:00:00 -- -- -- -- -- -- -- -- --
2018-03-30 06:00:00 -- -- -- -- -- -- -- -- --
2018-03-30 05:00:00 -- -- -- -- -- -- -- -- --
2018-03-30 04:00:00 -- -- -- -- -- -- -- -- --
2018-03-30 03:00:00 17.6 8 Este 24 Nordeste 0 1017.2 0 82
2018-03-30 02:00:00 17.8 15 Nordeste 27 Nordeste 0 1017.1 0.4 87
2018-03-30 01:00:00 18 21 Nordeste 28 Nordeste 0 1017.2 0.9 84
2018-03-30 00:00:00 18.3 23 Nordeste 38 Nordeste 0 1017.2 2.5 87
2018-03-29 23:00:00 18.4 27 Nordeste 35 Nordeste 0 1016.7 2.3 88
2018-03-29 22:00:00 18.4 30 Nordeste 37 Nordeste 0 1016.3 2.3 88
2018-03-29 21:00:00 18.6 26 Nordeste 35 Nordeste 0 1014.7 0.8 90
2018-03-29 20:00:00 18.9 21 Nordeste 32 Nordeste 0 1014.4 0.6 89
2018-03-29 19:00:00 19.1 24 Nordeste 32 Nordeste 0 1014 -0.3 88
2018-03-29 18:00:00 19.4 22 Nordeste 35 Nordeste 0 1013.9 -0.3 88
2018-03-29 17:00:00 19.7 26 Nordeste 36 Nordeste 0 1013.8 -0.4 87
2018-03-29 16:00:00 20.2 22 Nordeste 31 Nordeste 0 1014.3 -0.5 84
2018-03-29 15:00:00 20.8 10 Norte 18 Nordeste 0 1014.2 -0.8 80
2018-03-29 14:00:00 22.1 14 Nordeste 19 Nordeste 0 1014.2 -0.4 76
2018-03-29 13:00:00 22 12 Nordeste 18 Nordeste 0 1014.8 0.5 77
2018-03-29 12:00:00 20.3 5 Noroeste 16 Sudoeste 0 1015 1.4 82
2018-03-29 11:00:00 20.1 8 Sudoeste 19 Sudoeste 0 1014.6 1.4 83
2018-03-29 10:00:00 19.1 7 Oeste 19 Sudoeste 0 1014.3 1.7 89
2018-03-29 09:00:00 18.7 6 Sudoeste 18 Sudoeste 0 1013.6 1.1 88
2018-03-29 08:00:00 18.6 6 Sudoeste 17 Sudoeste 0 1013.2 0.5 90
2018-03-29 07:00:00 18.4 5 Sur 11 Este 0 1012.6 -0.2 92
2018-03-29 06:00:00 18.3 6 Sudoeste 22 Norte 0 1012.5 -0.7 94
2018-03-29 05:00:00 18.5 12 Norte 24 Nordeste 0 1012.7 -0.8 95
2018-03-29 04:00:00 18.3 3 Sudoeste 17 Sudoeste 0 1012.8 -1 93
2018-03-29 03:00:00 18.9 6 Sudoeste 22 Sudoeste 0 1013.2 -1 92
2018-03-29 02:00:00 19 5 Sudoeste 14 Sudoeste 0 1013.5 -0.7 91
2018-03-29 01:00:00 19 4 Sudoeste 21 Oeste 0 1013.8 -0.2 95
2018-03-29 00:00:00 19.3 8 Oeste 16 Sudoeste 0 1014.2 0.5 93
2018-03-28 23:00:00 19.6 0 Calma 6 Nordeste 0 1014.2 1 93
2018-03-28 22:00:00 19.8 8 Nordeste 9 Nordeste 0 1014 1.2 92
2018-03-28 21:00:00 20.1 3 Este 7 Nordeste 0 1013.7 0.6 90
2018-03-28 20:00:00 20.7 3 Nordeste 9 Nordeste 0 1013.2 -0.2 88
2018-03-28 19:00:00 21.5 5 Nordeste 7 Nordeste 0 1012.8 -0.9 84
2018-03-28 18:00:00 20.9 3 Norte 7 Nordeste 0 1013.1 -1.1 87
2018-03-28 17:00:00 20.7 2 Norte 8 Norte 0 1013.4 -2 88
2018-03-28 16:00:00 20.7 5 Norte 10 Nordeste 0 1013.7 -2.2 86
2018-03-28 15:00:00 21.7 6 Nordeste 9 Norte 0 1014.2 -2.1 82
2018-03-28 14:00:00 20.8 4 Norte 8 Norte 0 1015.4 -0.9 85
2018-03-28 13:00:00 20.6 3 Norte 8 Norte 0 1015.9 -0.7 86
2018-03-28 12:00:00 20.5 3 Noroeste 9 Nordeste 0 1016.3 -0.1 85
2018-03-28 11:00:00 20.3 4 Nordeste 6 Nordeste -- 1016.3 0.3 84
2018-03-28 10:00:00 19 5 Este 9 Nordeste 0 1016.6 1.1 88
2018-03-28 09:00:00 18.2 0 Calma 9 Sur 0 1016.4 0.6 89
2018-03-28 08:00:00 17.5 4 Sur 10 Sur 0 1016 -0.2 89
2018-03-28 07:00:00 17.8 0 Calma 6 Sudoeste 0 1015.5 -0.9 89
2018-03-28 06:00:00 18.7 0 Calma 11 Sur 0 1015.8 -0.5 91
2018-03-28 05:00:00 18.4 5 Sur 12 Sur 0 1016.2 -0.7 92
2018-03-28 04:00:00 18.4 5 Sudoeste 14 Sudoeste 0 1016.4 -1.1 92
2018-03-28 03:00:00 18.4 4 Sudoeste 18 Sudoeste 0 1016.3 -2.2 92
2018-03-28 02:00:00 18.3 7 Sudoeste 16 Sudoeste 0 1016.9 -2.3 92
2018-03-28 01:00:00 18.4 2 Oeste 14 Norte 0 1017.5 -1 92
2018-03-28 00:00:00 18.3 8 Norte 19 Nordeste 0 1018.5 0.2 91
2018-03-27 23:00:00 18.5 12 Nordeste 22 Nordeste 0 1019.2 0.6 91
2018-03-27 22:00:00 18.4 16 Nordeste 20 Nordeste 0 1018.5 0.3 90
2018-03-27 21:00:00 18.3 14 Nordeste 27 Nordeste 0 1018.3 -0.1 89
2018-03-27 20:00:00 18.2 18 Nordeste 31 Nordeste 0 1018.6 0.2 89
2018-03-27 19:00:00 18.3 23 Nordeste 32 Nordeste 0 1018.2 -0.4 88
2018-03-27 18:00:00 18.4 21 Nordeste 30 Nordeste 0 1018.4 -0.9 87
2018-03-27 17:00:00 18.7 22 Nordeste 29 Nordeste 0 1018.4 -1.1 84
2018-03-27 16:00:00 18.9 23 Nordeste 32 Nordeste 0 1018.6 -1.9 81
2018-03-27 15:00:00 19 25 Nordeste 39 Nordeste 0 1019.3 -1.9 79
2018-03-27 14:00:00 19.1 28 Nordeste 42 Nordeste 0 1019.5 -1.7 77
2018-03-27 13:00:00 19.4 29 Nordeste 43 Nordeste 0 1020.5 -0.4 74
2018-03-27 12:00:00 20.3 23 Nordeste 32 Nordeste 0 1021.2 0.3 69
2018-03-27 11:00:00 20.3 11 Nordeste 18 Nordeste 0 1021.2 0.3 66
2018-03-27 10:00:00 18.4 3 Este 12 Este 0 1020.9 0.2 71
2018-03-27 09:00:00 17.6 5 Sudeste 14 Sudeste 0 1020.9 0.5 72
2018-03-27 08:00:00 16.4 6 Sudeste 18 Sudeste 0 1020.9 0.4 73
2018-03-27 07:00:00 16.1 5 Sur 14 Sudeste 0 1020.7 -0.4 73
2018-03-27 06:00:00 15.9 8 Sudeste 19 Sudeste 0 1020.4 -1.5 70
2018-03-27 05:00:00 16.4 4 Sudeste 16 Sudeste 0 1020.5 -1.7 71
2018-03-27 04:00:00 16.7 8 Sudeste 15 Sudeste 0 1021.1 -1.3 70
2018-03-27 03:00:00 16.6 6 Sudeste 15 Sudeste 0 1021.9 -0.9 70
2018-03-27 02:00:00 16.8 9 Sudeste 15 Sudeste 0 1022.2 -0.6 69
2018-03-27 01:00:00 16.9 8 Este 16 Sudeste 0 1022.4 0.1 73
2018-03-27 00:00:00 16.9 8 Sudeste 25 Este 0 1022.8 1.3 72
2018-03-26 23:00:00 17.6 13 Este 27 Nordeste 0 1022.8 1.9 77
2018-03-26 22:00:00 17.7 15 Este 29 Nordeste 0 1022.3 1.5 74
2018-03-26 21:00:00 17.8 22 Nordeste 36 Este 0 1021.5 1.1 76
2018-03-26 20:00:00 18 28 Nordeste 38 Nordeste 0 1020.9 0.9 75
2018-03-26 19:00:00 18.6 25 Nordeste 39 Nordeste 0 1020.8 0.4 75
2018-03-26 18:00:00 19.1 30 Nordeste 40 Nordeste 0 1020.4 -0.8 74
2018-03-26 17:00:00 19 30 Nordeste 43 Nordeste 0 1020 -1.9 70
2018-03-26 16:00:00 19.6 29 Nordeste 42 Nordeste 0 1020.4 -1.9 69
2018-03-26 15:00:00 19.5 29 Nordeste 44 Nordeste 0 1021.2 -1.5 67
2018-03-26 14:00:00 19.5 24 Nordeste 41 Nordeste 0 1021.9 -1.2 71
2018-03-26 13:00:00 20 20 Nordeste 39 Nordeste 0 1022.3 -0.3 68
2018-03-26 12:00:00 -- -- -- -- -- -- -- -- --
2018-03-26 11:00:00 -- -- -- -- -- -- -- -- --
2018-03-26 10:00:00 -- -- -- -- -- -- -- -- --
2018-03-26 09:00:00 -- -- -- -- -- -- -- -- --
2018-03-26 08:00:00 -- -- -- -- -- -- -- -- --
2018-03-26 07:00:00 -- -- -- -- -- -- -- -- --
2018-03-26 06:00:00 -- -- -- -- -- -- -- -- --
2018-03-26 05:00:00 -- -- -- -- -- -- -- -- --
2018-03-26 04:00:00 -- -- -- -- -- -- -- -- --
2018-03-26 03:00:00 -- -- -- -- -- -- -- -- --
2018-03-26 02:00:00 -- -- -- -- -- -- -- -- --
2018-03-26 01:00:00 -- -- -- -- -- -- -- -- --
2018-03-26 00:00:00 -- -- -- -- -- -- -- -- --
2018-03-25 23:00:00 -- -- -- -- -- -- -- -- --
2018-03-25 22:00:00 -- -- -- -- -- -- -- -- --
2018-03-25 21:00:00 -- -- -- -- -- -- -- -- --
2018-03-25 20:00:00 -- -- -- -- -- -- -- -- --
2018-03-25 19:00:00 -- -- -- -- -- -- -- -- --
2018-03-25 18:00:00 -- -- -- -- -- -- -- -- --
2018-03-25 17:00:00 -- -- -- -- -- -- -- -- --
2018-03-25 16:00:00 -- -- -- -- -- -- -- -- --
2018-03-25 15:00:00 -- -- -- -- -- -- -- -- --
2018-03-25 14:00:00 -- -- -- -- -- -- -- -- --
2018-03-25 13:00:00 -- -- -- -- -- -- -- -- --
2018-03-25 12:00:00 -- -- -- -- -- -- -- -- --
2018-03-25 11:00:00 -- -- -- -- -- -- -- -- --
2018-03-25 10:00:00 -- -- -- -- -- -- -- -- --
2018-03-25 09:00:00 -- -- -- -- -- -- -- -- --
2018-03-25 08:00:00 -- -- -- -- -- -- -- -- --
2018-03-25 07:00:00 -- -- -- -- -- -- -- -- --
2018-03-25 06:00:00 -- -- -- -- -- -- -- -- --
2018-03-25 05:00:00 -- -- -- -- -- -- -- -- --
2018-03-25 04:00:00 -- -- -- -- -- -- -- -- --
2018-03-25 00:00:00 -- -- -- -- -- -- -- -- --
2018-03-24 23:00:00 -- -- -- -- -- -- -- -- --
2018-03-24 22:00:00 -- -- -- -- -- -- -- -- --
2018-03-24 21:00:00 -- -- -- -- -- -- -- -- --
2018-03-24 20:00:00 -- -- -- -- -- -- -- -- --
2018-03-24 19:00:00 -- -- -- -- -- -- -- -- --
2018-03-24 18:00:00 -- -- -- -- -- -- -- -- --
2018-03-24 17:00:00 -- -- -- -- -- -- -- -- --
2018-03-24 16:00:00 -- -- -- -- -- -- -- -- --
2018-03-24 15:00:00 -- -- -- -- -- -- -- -- --
2018-03-24 14:00:00 -- -- -- -- -- -- -- -- --
2018-03-24 13:00:00 -- -- -- -- -- -- -- -- --
2018-03-24 12:00:00 -- -- -- -- -- -- -- -- --
2018-03-24 11:00:00 -- -- -- -- -- -- -- -- --
2018-03-24 10:00:00 -- -- -- -- -- -- -- -- --
2018-03-24 09:00:00 -- -- -- -- -- -- -- -- --
2018-03-24 08:00:00 -- -- -- -- -- -- -- -- --
2018-03-24 07:00:00 -- -- -- -- -- -- -- -- --
2018-03-24 06:00:00 -- -- -- -- -- -- -- -- --
2018-03-24 05:00:00 -- -- -- -- -- -- -- -- --
2018-03-24 04:00:00 -- -- -- -- -- -- -- -- --
2018-03-24 03:00:00 -- -- -- -- -- -- -- -- --
2018-03-24 02:00:00 -- -- -- -- -- -- -- -- --
2018-03-24 01:00:00 -- -- -- -- -- -- -- -- --
2018-03-24 00:00:00 -- -- -- -- -- -- -- -- --
2018-03-23 23:00:00 -- -- -- -- -- -- -- -- --
2018-03-23 22:00:00 -- -- -- -- -- -- -- -- --
2018-03-23 21:00:00 -- -- -- -- -- -- -- -- --
2018-03-23 20:00:00 -- -- -- -- -- -- -- -- --
2018-03-23 19:00:00 -- -- -- -- -- -- -- -- --
2018-03-23 18:00:00 -- -- -- -- -- -- -- -- --
2018-03-23 17:00:00 -- -- -- -- -- -- -- -- --
2018-03-23 16:00:00 -- -- -- -- -- -- -- -- --
2018-03-23 15:00:00 -- -- -- -- -- -- -- -- --
2018-03-23 14:00:00 -- -- -- -- -- -- -- -- --
2018-03-23 13:00:00 -- -- -- -- -- -- -- -- --
2018-03-23 12:00:00 -- -- -- -- -- -- -- -- --
2018-03-23 11:00:00 -- -- -- -- -- -- -- -- --
2018-03-23 10:00:00 -- -- -- -- -- -- -- -- --
2018-03-23 09:00:00 -- -- -- -- -- -- -- -- --
2018-03-23 08:00:00 -- -- -- -- -- -- -- -- --
2018-03-23 07:00:00 -- -- -- -- -- -- -- -- --
2018-03-23 06:00:00 -- -- -- -- -- -- -- -- --
2018-03-23 05:00:00 -- -- -- -- -- -- -- -- --
2018-03-23 04:00:00 -- -- -- -- -- -- -- -- --
2018-03-23 03:00:00 -- -- -- -- -- -- -- -- --
2018-03-23 02:00:00 -- -- -- -- -- -- -- -- --
2018-03-23 01:00:00 -- -- -- -- -- -- -- -- --
2018-03-23 00:00:00 -- -- -- -- -- -- -- -- --